createdAt,value
2022-09-03T00:00:03.545Z,713.94
2022-09-03T00:01:03.544Z,714.26
2022-09-03T00:02:03.569Z,714.75
2022-09-03T00:03:03.563Z,714.55
2022-09-03T00:04:03.504Z,714.54
2022-09-03T00:05:03.495Z,714.47
2022-09-03T00:06:03.481Z,714.62
2022-09-03T00:07:03.476Z,714.65
2022-09-03T00:08:03.471Z,714.03
2022-09-03T00:09:03.458Z,713.92
2022-09-03T00:10:03.429Z,714.51
2022-09-03T00:11:03.431Z,714.64
2022-09-03T00:12:03.425Z,715.06
2022-09-03T00:13:03.408Z,715.19
2022-09-03T00:14:03.387Z,715.43
2022-09-03T00:15:03.378Z,715.90
2022-09-03T00:16:03.417Z,715.92
2022-09-03T00:17:03.360Z,716.20
2022-09-03T00:18:03.369Z,716.42
2022-09-03T00:19:03.351Z,716.49
2022-09-03T00:20:03.339Z,716.60
2022-09-03T00:21:03.318Z,716.73
2022-09-03T00:22:03.300Z,716.68
2022-09-03T00:23:03.289Z,716.98
2022-09-03T00:24:03.269Z,717.51
2022-09-03T00:25:03.278Z,717.95
2022-09-03T00:26:03.251Z,718.11
2022-09-03T00:27:03.240Z,718.17
2022-09-03T00:28:03.250Z,718.75
2022-09-03T00:29:03.212Z,718.80
2022-09-03T00:30:03.201Z,718.71
2022-09-03T00:31:03.306Z,719.76
2022-09-03T00:32:03.180Z,719.85
2022-09-03T00:33:03.182Z,719.63
2022-09-03T00:34:03.171Z,719.28
2022-09-03T00:35:03.150Z,718.83
2022-09-03T00:36:03.131Z,718.92
2022-09-03T00:37:03.122Z,718.83
2022-09-03T00:38:03.144Z,719.03
2022-09-03T00:39:03.094Z,718.55
2022-09-03T00:40:03.181Z,718.82
2022-09-03T00:41:03.074Z,719.03
2022-09-03T00:42:03.083Z,719.37
2022-09-03T00:43:03.062Z,719.54
2022-09-03T00:44:03.069Z,719.80
2022-09-03T00:45:03.032Z,719.57
2022-09-03T00:46:03.086Z,719.82
2022-09-03T00:47:03.005Z,719.95
2022-09-03T00:48:03.033Z,719.79
2022-09-03T00:49:02.986Z,719.53
2022-09-03T00:50:02.974Z,719.74
2022-09-03T00:51:02.967Z,720.23
2022-09-03T00:52:02.977Z,721.14
2022-09-03T00:53:02.934Z,721.44
2022-09-03T00:54:02.950Z,721.93
2022-09-03T00:55:02.915Z,722.12
2022-09-03T00:56:02.906Z,722.25
2022-09-03T00:57:02.907Z,722.30
2022-09-03T00:58:02.895Z,722.36
2022-09-03T00:59:02.881Z,722.61
2022-09-03T01:00:02.856Z,722.60
2022-09-03T01:01:02.846Z,722.75
2022-09-03T01:02:02.966Z,722.64
2022-09-03T01:03:02.840Z,722.97
2022-09-03T01:04:02.826Z,723.00
2022-09-03T01:05:02.808Z,723.22
2022-09-03T01:06:02.790Z,723.73
2022-09-03T01:07:02.777Z,724.17
2022-09-03T01:08:02.797Z,724.54
2022-09-03T01:09:02.765Z,724.88
2022-09-03T01:10:02.749Z,725.12
2022-09-03T01:11:02.748Z,725.55
2022-09-03T01:12:02.720Z,725.81
2022-09-03T01:13:02.720Z,726.47
2022-09-03T01:14:02.721Z,727.20
2022-09-03T01:15:02.711Z,728.12
2022-09-03T01:16:02.701Z,728.64
2022-09-03T01:17:02.670Z,729.03
2022-09-03T01:18:02.680Z,729.63
2022-09-03T01:19:02.692Z,730.10
2022-09-03T01:20:02.639Z,730.20
2022-09-03T01:21:02.639Z,730.69
2022-09-03T01:22:02.620Z,730.69
2022-09-03T01:23:02.630Z,730.96
2022-09-03T01:24:02.605Z,731.67
2022-09-03T01:25:02.591Z,732.21
2022-09-03T01:26:02.570Z,732.99
2022-09-03T01:27:02.583Z,733.20
2022-09-03T01:28:02.552Z,733.19
2022-09-03T01:29:02.550Z,733.66
2022-09-03T01:30:02.534Z,733.86
2022-09-03T01:31:02.553Z,734.06
2022-09-03T01:32:02.529Z,734.22
2022-09-03T01:33:02.494Z,734.40
2022-09-03T01:34:02.493Z,733.87
2022-09-03T01:35:02.495Z,733.82
2022-09-03T01:36:02.473Z,733.81
2022-09-03T01:37:02.450Z,733.93
2022-09-03T01:38:02.466Z,733.59
2022-09-03T01:39:02.436Z,733.38
2022-09-03T01:40:02.492Z,733.09
2022-09-03T01:41:02.414Z,733.00
2022-09-03T01:42:02.412Z,733.00
2022-09-03T01:43:02.407Z,732.81
2022-09-03T01:44:02.384Z,732.33
2022-09-03T01:45:02.364Z,732.16
2022-09-03T01:46:02.420Z,732.08
2022-09-03T01:47:02.357Z,731.75
2022-09-03T01:48:02.348Z,731.72
2022-09-03T01:49:02.321Z,731.76
2022-09-03T01:50:02.316Z,731.75
2022-09-03T01:51:02.310Z,731.62
2022-09-03T01:52:02.297Z,731.50
2022-09-03T01:53:02.296Z,731.74
2022-09-03T01:54:02.277Z,731.61
2022-09-03T01:55:02.259Z,731.40
2022-09-03T01:56:02.250Z,731.19
2022-09-03T01:57:02.228Z,730.95
2022-09-03T01:58:02.247Z,730.68
2022-09-03T01:59:02.216Z,730.60
2022-09-03T02:00:02.198Z,730.40
2022-09-03T02:01:02.191Z,729.81
2022-09-03T02:02:02.248Z,729.54
2022-09-03T02:03:02.214Z,729.19
2022-09-03T02:04:02.160Z,728.50
2022-09-03T02:05:02.158Z,728.23
2022-09-03T02:06:02.131Z,727.56
2022-09-03T02:07:02.131Z,726.45
2022-09-03T02:08:02.138Z,725.95
2022-09-03T02:09:02.099Z,725.00
2022-09-03T02:10:02.085Z,724.05
2022-09-03T02:11:02.151Z,723.48
2022-09-03T02:12:02.070Z,722.86
2022-09-03T02:13:02.061Z,722.55
2022-09-03T02:14:02.050Z,722.17
2022-09-03T02:15:02.039Z,721.33
2022-09-03T02:16:02.091Z,720.83
2022-09-03T02:17:02.010Z,720.84
2022-09-03T02:18:02.027Z,720.62
2022-09-03T02:19:01.995Z,720.23
2022-09-03T02:20:01.971Z,719.80
2022-09-03T02:21:01.990Z,719.52
2022-09-03T02:22:01.960Z,719.45
2022-09-03T02:23:01.983Z,719.22
2022-09-03T02:24:01.933Z,719.05
2022-09-03T02:25:01.938Z,718.45
2022-09-03T02:26:01.902Z,718.43
2022-09-03T02:27:01.900Z,717.70
2022-09-03T02:28:01.903Z,717.42
2022-09-03T02:29:01.894Z,717.24
2022-09-03T02:30:01.861Z,717.03
2022-09-03T02:31:01.931Z,717.03
2022-09-03T02:32:01.859Z,716.70
2022-09-03T02:33:01.844Z,716.56
2022-09-03T02:34:01.838Z,716.28
2022-09-03T02:35:01.815Z,716.75
2022-09-03T02:36:01.793Z,717.09
2022-09-03T02:37:01.775Z,716.80
2022-09-03T02:38:01.790Z,716.43
2022-09-03T02:39:01.777Z,715.75
2022-09-03T02:40:01.822Z,715.46
2022-09-03T02:41:01.747Z,715.42
2022-09-03T02:42:01.744Z,715.12
2022-09-03T02:43:01.725Z,714.73
2022-09-03T02:44:01.723Z,714.86
2022-09-03T02:45:01.702Z,715.03
2022-09-03T02:46:01.754Z,715.30
2022-09-03T02:47:01.677Z,715.92
2022-09-03T02:48:01.689Z,716.33
2022-09-03T02:49:01.655Z,716.14
2022-09-03T02:50:01.627Z,716.45
2022-09-03T02:51:01.639Z,716.92
2022-09-03T02:52:02.618Z,717.59
2022-09-03T02:53:01.615Z,718.18
2022-09-03T02:54:01.587Z,718.27
2022-09-03T02:55:01.602Z,718.36
2022-09-03T02:56:01.567Z,718.50
2022-09-03T02:57:01.551Z,719.14
2022-09-03T02:58:01.569Z,719.18
2022-09-03T02:59:01.542Z,719.19
2022-09-03T03:00:01.519Z,719.42
2022-09-03T03:01:01.595Z,719.62
2022-09-03T03:02:01.509Z,719.85
2022-09-03T03:03:01.493Z,719.86
2022-09-03T03:04:01.482Z,719.98
2022-09-03T03:05:01.478Z,720.59
2022-09-03T03:06:01.466Z,721.25
2022-09-03T03:07:01.430Z,721.77
2022-09-03T03:08:01.440Z,722.25
2022-09-03T03:09:01.423Z,722.09
2022-09-03T03:10:01.401Z,721.97
2022-09-03T03:11:01.400Z,721.84
2022-09-03T03:12:01.390Z,721.68
2022-09-03T03:13:01.383Z,722.15
2022-09-03T03:14:01.365Z,722.65
2022-09-03T03:15:01.348Z,723.02
2022-09-03T03:16:01.336Z,723.19
2022-09-03T03:17:01.344Z,723.98
2022-09-03T03:18:01.346Z,724.36
2022-09-03T03:19:01.317Z,724.47
2022-09-03T03:20:01.295Z,725.24
2022-09-03T03:21:01.282Z,725.29
2022-09-03T03:22:01.273Z,725.69
2022-09-03T03:23:01.274Z,726.24
2022-09-03T03:24:01.245Z,726.80
2022-09-03T03:25:01.243Z,726.85
2022-09-03T03:26:01.224Z,726.92
2022-09-03T03:27:01.214Z,727.16
2022-09-03T03:28:01.240Z,727.73
2022-09-03T03:29:01.197Z,727.95
2022-09-03T03:30:01.183Z,727.71
2022-09-03T03:31:01.247Z,727.87
2022-09-03T03:32:01.178Z,727.86
2022-09-03T03:33:01.156Z,727.58
2022-09-03T03:34:01.126Z,727.29
2022-09-03T03:35:01.139Z,726.98
2022-09-03T03:36:01.106Z,726.61
2022-09-03T03:37:01.111Z,726.42
2022-09-03T03:38:01.107Z,725.97
2022-09-03T03:39:01.096Z,725.55
2022-09-03T03:40:01.108Z,725.00
2022-09-03T03:41:01.067Z,724.95
2022-09-03T03:42:01.065Z,724.94
2022-09-03T03:43:01.047Z,725.74
2022-09-03T03:44:01.018Z,726.28
2022-09-03T03:45:01.019Z,726.30
2022-09-03T03:46:01.047Z,725.75
2022-09-03T03:47:01.005Z,725.56
2022-09-03T03:48:01.067Z,725.65
2022-09-03T03:49:00.976Z,725.74
2022-09-03T03:50:00.957Z,725.99
2022-09-03T03:51:00.964Z,725.93
2022-09-03T03:52:00.947Z,725.80
2022-09-03T03:53:00.938Z,726.61
2022-09-03T03:54:04.803Z,727.06
2022-09-03T03:55:00.908Z,726.85
2022-09-03T03:56:00.899Z,726.93
2022-09-03T03:57:00.881Z,727.12
2022-09-03T03:58:00.881Z,727.37
2022-09-03T03:59:00.885Z,727.34
2022-09-03T04:00:00.841Z,727.01
2022-09-03T04:01:00.859Z,727.19
2022-09-03T04:02:00.845Z,727.10
2022-09-03T04:03:00.851Z,726.73
2022-09-03T04:04:00.806Z,726.78
2022-09-03T04:05:00.806Z,726.51
2022-09-03T04:06:00.792Z,725.89
2022-09-03T04:07:00.765Z,724.89
2022-09-03T04:08:00.779Z,724.26
2022-09-03T04:09:00.751Z,723.78
2022-09-03T04:10:00.749Z,723.47
2022-09-03T04:11:00.740Z,723.31
2022-09-03T04:12:00.723Z,723.22
2022-09-03T04:13:00.738Z,722.72
2022-09-03T04:14:00.693Z,722.40
2022-09-03T04:15:00.711Z,721.54
2022-09-03T04:16:00.674Z,720.91
2022-09-03T04:17:00.701Z,720.31
2022-09-03T04:18:00.678Z,719.77
2022-09-03T04:19:00.644Z,719.36
2022-09-03T04:20:00.633Z,718.75
2022-09-03T04:21:00.629Z,718.42
2022-09-03T04:22:00.604Z,717.81
2022-09-03T04:23:00.614Z,717.70
2022-09-03T04:24:00.587Z,717.04
2022-09-03T04:25:00.583Z,716.67
2022-09-03T04:26:00.563Z,715.99
2022-09-03T04:27:00.546Z,715.74
2022-09-03T04:28:00.748Z,714.90
2022-09-03T04:29:00.526Z,714.22
2022-09-03T04:30:00.516Z,713.97
2022-09-03T04:31:00.580Z,713.87
2022-09-03T04:32:00.500Z,713.90
2022-09-03T04:33:00.498Z,713.86
2022-09-03T04:34:00.460Z,713.63
2022-09-03T04:35:00.469Z,713.50
2022-09-03T04:36:00.452Z,713.26
2022-09-03T04:37:00.444Z,712.84
2022-09-03T04:38:00.447Z,712.76
2022-09-03T04:39:00.410Z,712.53
2022-09-03T04:40:00.481Z,712.76
2022-09-03T04:41:00.406Z,712.97
2022-09-03T04:42:00.368Z,712.46
2022-09-03T04:43:00.367Z,712.32
2022-09-03T04:44:00.342Z,712.14
2022-09-03T04:45:00.338Z,711.83
2022-09-03T04:46:00.430Z,711.68
2022-09-03T04:47:00.330Z,711.41
2022-09-03T04:48:00.322Z,711.23
2022-09-03T04:49:00.291Z,711.24
2022-09-03T04:50:00.269Z,710.95
2022-09-03T04:51:00.270Z,710.82
2022-09-03T04:52:00.261Z,710.73
2022-09-03T04:53:03.462Z,710.49
2022-09-03T04:54:01.256Z,710.09
2022-09-03T04:55:00.219Z,709.89
2022-09-03T04:56:00.206Z,709.45
2022-09-03T04:57:00.192Z,709.26
2022-09-03T04:58:00.201Z,709.08
2022-09-03T04:59:00.180Z,708.60
2022-09-03T05:00:00.164Z,708.47
2022-09-03T05:01:00.222Z,708.22
2022-09-03T05:02:00.233Z,707.94
2022-09-03T05:03:00.130Z,707.64
2022-09-03T05:04:00.129Z,707.24
2022-09-03T05:05:00.093Z,706.89
2022-09-03T05:06:00.092Z,706.49
2022-09-03T05:07:00.073Z,706.55
2022-09-03T05:08:00.083Z,706.54
2022-09-03T05:09:00.056Z,706.60
2022-09-03T05:10:00.033Z,706.84
2022-09-03T05:11:00.024Z,706.73
2022-09-03T05:12:00.034Z,706.52
2022-09-03T05:13:00.004Z,706.24
2022-09-03T05:13:59.993Z,705.75
2022-09-03T05:14:59.976Z,705.84
2022-09-03T05:16:00.002Z,706.23
2022-09-03T05:17:00.001Z,706.67
2022-09-03T05:17:59.959Z,706.38
2022-09-03T05:18:59.928Z,706.27
2022-09-03T05:19:59.927Z,706.23
2022-09-03T05:20:59.924Z,705.94
2022-09-03T05:21:59.906Z,705.68
2022-09-03T05:22:59.897Z,705.57
2022-09-03T05:23:59.876Z,705.70
2022-09-03T05:24:59.866Z,705.63
2022-09-03T05:25:59.855Z,705.63
2022-09-03T05:26:59.841Z,705.69
2022-09-03T05:27:59.848Z,705.54
2022-09-03T05:28:59.821Z,705.21
2022-09-03T05:29:59.808Z,704.52
2022-09-03T05:30:59.813Z,704.05
2022-09-03T05:31:59.818Z,703.79
2022-09-03T05:32:59.790Z,703.53
2022-09-03T05:33:59.753Z,703.37
2022-09-03T05:34:59.749Z,703.49
2022-09-03T05:35:59.732Z,703.56
2022-09-03T05:36:59.728Z,703.57
2022-09-03T05:37:59.729Z,703.61
2022-09-03T05:38:59.705Z,703.26
2022-09-03T05:39:59.727Z,703.01
2022-09-03T05:40:59.680Z,702.65
2022-09-03T05:41:59.661Z,702.04
2022-09-03T05:42:59.670Z,701.82
2022-09-03T05:43:59.850Z,701.34
2022-09-03T05:44:59.629Z,701.12
2022-09-03T05:45:59.652Z,701.26
2022-09-03T05:46:59.607Z,701.04
2022-09-03T05:47:59.628Z,700.68
2022-09-03T05:48:59.580Z,699.96
2022-09-03T05:49:59.563Z,699.57
2022-09-03T05:50:59.554Z,698.65
2022-09-03T05:51:59.542Z,698.61
2022-09-03T05:52:59.534Z,698.26
2022-09-03T05:53:59.527Z,698.31
2022-09-03T05:54:59.504Z,698.54
2022-09-03T05:55:59.483Z,698.62
2022-09-03T05:56:59.473Z,698.36
2022-09-03T05:57:59.497Z,698.19
2022-09-03T05:58:59.468Z,698.12
2022-09-03T05:59:59.434Z,697.82
2022-09-03T06:00:59.437Z,698.48
2022-09-03T06:02:00.353Z,698.89
2022-09-03T06:02:59.455Z,699.36
2022-09-03T06:03:59.396Z,699.51
2022-09-03T06:04:59.378Z,699.85
2022-09-03T06:05:59.378Z,700.50
2022-09-03T06:06:59.347Z,702.12
2022-09-03T06:07:59.406Z,705.48
2022-09-03T06:08:59.337Z,703.30
2022-09-03T06:09:59.338Z,706.96
2022-09-03T06:10:59.325Z,706.39
2022-09-03T06:12:00.022Z,706.34
2022-09-03T06:12:59.305Z,706.22
2022-09-03T06:13:59.270Z,705.91
2022-09-03T06:14:59.285Z,705.46
2022-09-03T06:15:59.297Z,707.48
2022-09-03T06:16:59.280Z,699.84
2022-09-03T06:17:59.247Z,699.13
2022-09-03T06:18:59.667Z,699.47
2022-09-03T06:19:59.204Z,703.86
2022-09-03T06:20:59.203Z,703.12
2022-09-03T06:21:59.193Z,707.93
2022-09-03T06:22:59.178Z,709.23
2022-09-03T06:23:59.655Z,706.90
2022-09-03T06:24:59.140Z,703.69
2022-09-03T06:26:04.457Z,706.49
2022-09-03T06:27:00.116Z,705.75
2022-09-03T06:27:59.131Z,705.80
2022-09-03T06:28:59.107Z,701.93
2022-09-03T06:29:59.079Z,701.39
2022-09-03T06:30:59.092Z,701.18
2022-09-03T06:31:59.097Z,701.05
2022-09-03T06:32:59.061Z,695.75
2022-09-03T06:34:03.822Z,694.13
2022-09-03T06:35:00.026Z,692.34
2022-09-03T06:35:59.013Z,690.45
2022-09-03T06:36:58.994Z,690.03
2022-09-03T06:37:59.033Z,690.00
2022-09-03T06:38:58.982Z,689.85
2022-09-03T06:39:59.009Z,689.77
2022-09-03T06:40:58.955Z,689.50
2022-09-03T06:41:58.953Z,689.07
2022-09-03T06:42:58.944Z,688.79
2022-09-03T06:43:58.924Z,688.71
2022-09-03T06:44:58.913Z,688.61
2022-09-03T06:45:58.915Z,689.66
2022-09-03T06:46:58.884Z,689.70
2022-09-03T06:47:58.885Z,691.63
2022-09-03T06:48:58.878Z,691.84
2022-09-03T06:49:58.845Z,691.80
2022-09-03T06:50:58.850Z,692.28
2022-09-03T06:51:58.826Z,692.15
2022-09-03T06:52:58.835Z,691.94
2022-09-03T06:53:58.811Z,691.75
2022-09-03T06:54:58.813Z,691.06
2022-09-03T06:55:58.767Z,690.56
2022-09-03T06:56:58.779Z,690.25
2022-09-03T06:57:58.778Z,690.09
2022-09-03T06:58:58.742Z,688.77
2022-09-03T06:59:58.742Z,688.35
2022-09-03T07:00:59.073Z,688.96
2022-09-03T07:01:58.851Z,688.54
2022-09-03T07:02:58.728Z,687.70
2022-09-03T07:03:58.699Z,687.73
2022-09-03T07:04:58.678Z,688.13
2022-09-03T07:05:58.661Z,687.88
2022-09-03T07:06:58.667Z,686.44
2022-09-03T07:07:58.648Z,685.98
2022-09-03T07:08:58.629Z,685.25
2022-09-03T07:09:58.631Z,685.71
2022-09-03T07:10:58.611Z,685.94
2022-09-03T07:11:58.599Z,685.60
2022-09-03T07:12:58.611Z,685.29
2022-09-03T07:13:58.576Z,685.96
2022-09-03T07:14:58.562Z,685.59
2022-09-03T07:15:58.572Z,686.04
2022-09-03T07:16:58.569Z,688.51
2022-09-03T07:17:58.541Z,698.49
2022-09-03T07:18:58.522Z,704.80
2022-09-03T07:19:58.513Z,711.10
2022-09-03T07:20:58.493Z,716.56
2022-09-03T07:21:58.502Z,722.50
2022-09-03T07:22:58.495Z,726.97
2022-09-03T07:23:58.453Z,729.80
2022-09-03T07:24:58.446Z,731.96
2022-09-03T07:25:58.446Z,733.56
2022-09-03T07:26:58.450Z,736.35
2022-09-03T07:27:58.405Z,740.40
2022-09-03T07:28:58.422Z,743.15
2022-09-03T07:29:58.374Z,745.10
2022-09-03T07:30:58.382Z,746.46
2022-09-03T07:31:58.416Z,749.54
2022-09-03T07:32:58.362Z,753.04
2022-09-03T07:33:58.344Z,755.68
2022-09-03T07:34:58.333Z,757.82
2022-09-03T07:35:58.315Z,761.16
2022-09-03T07:36:58.305Z,764.41
2022-09-03T07:37:58.297Z,766.32
2022-09-03T07:38:58.280Z,766.56
2022-09-03T07:39:58.338Z,766.91
2022-09-03T07:40:58.257Z,766.56
2022-09-03T07:41:58.286Z,766.52
2022-09-03T07:42:58.217Z,766.41
2022-09-03T07:43:58.217Z,766.35
2022-09-03T07:44:58.207Z,766.05
2022-09-03T07:45:58.201Z,766.29
2022-09-03T07:46:58.260Z,767.46
2022-09-03T07:47:58.179Z,768.07
2022-09-03T07:48:58.192Z,768.93
2022-09-03T07:49:58.168Z,771.03
2022-09-03T07:50:58.148Z,775.30
2022-09-03T07:51:58.149Z,778.64
2022-09-03T07:52:58.099Z,775.57
2022-09-03T07:53:58.129Z,786.23
2022-09-03T07:54:58.090Z,784.66
2022-09-03T07:55:58.071Z,793.55
2022-09-03T07:56:58.071Z,802.31
2022-09-03T07:57:58.072Z,806.01
2022-09-03T07:58:58.031Z,807.79
2022-09-03T07:59:58.037Z,816.95
2022-09-03T08:00:58.056Z,819.62
2022-09-03T08:01:58.040Z,817.64
2022-09-03T08:02:58.004Z,821.03
2022-09-03T08:03:58.030Z,823.00
2022-09-03T08:04:57.977Z,826.31
2022-09-03T08:05:57.971Z,826.31
2022-09-03T08:06:58.005Z,827.36
2022-09-03T08:07:57.958Z,825.82
2022-09-03T08:09:00.864Z,825.30
2022-09-03T08:09:58.924Z,826.61
2022-09-03T08:10:57.938Z,829.54
2022-09-03T08:11:57.907Z,829.20
2022-09-03T08:12:57.941Z,829.80
2022-09-03T08:13:57.872Z,832.14
2022-09-03T08:14:57.889Z,837.61
2022-09-03T08:15:57.920Z,840.55
2022-09-03T08:16:57.881Z,843.01
2022-09-03T08:18:03.450Z,844.03
2022-09-03T08:18:58.814Z,846.90
2022-09-03T08:19:57.806Z,853.35
2022-09-03T08:20:57.815Z,857.76
2022-09-03T08:21:57.796Z,864.24
2022-09-03T08:22:57.785Z,870.89
2022-09-03T08:23:57.767Z,880.61
2022-09-03T08:24:57.755Z,892.26
2022-09-03T08:25:57.737Z,903.80
2022-09-03T08:26:57.756Z,915.55
2022-09-03T08:27:57.715Z,924.87
2022-09-03T08:28:57.708Z,932.96
2022-09-03T08:29:57.723Z,938.25
2022-09-03T08:30:57.687Z,939.99
2022-09-03T08:31:59.609Z,938.65
2022-09-03T08:32:57.667Z,937.25
2022-09-03T08:33:57.655Z,934.67
2022-09-03T08:34:57.627Z,931.24
2022-09-03T08:35:57.649Z,928.61
2022-09-03T08:36:57.608Z,927.82
2022-09-03T08:37:57.629Z,928.89
2022-09-03T08:38:57.581Z,928.48
2022-09-03T08:39:57.714Z,925.65
2022-09-03T08:40:57.559Z,922.32
2022-09-03T08:41:57.586Z,918.41
2022-09-03T08:42:57.538Z,918.02
2022-09-03T08:43:57.529Z,916.53
2022-09-03T08:44:58.514Z,912.31
2022-09-03T08:45:57.511Z,906.96
2022-09-03T08:46:57.555Z,900.73
2022-09-03T08:47:57.485Z,894.03
2022-09-03T08:48:57.471Z,888.88
2022-09-03T08:49:57.467Z,891.14
2022-09-03T08:50:57.445Z,888.21
2022-09-03T08:51:57.462Z,894.72
2022-09-03T08:52:57.441Z,901.10
2022-09-03T08:53:57.434Z,908.16
2022-09-03T08:54:57.403Z,915.63
2022-09-03T08:55:57.392Z,924.70
2022-09-03T08:56:57.383Z,932.01
2022-09-03T08:57:57.364Z,938.29
2022-09-03T08:58:57.363Z,943.37
2022-09-03T08:59:57.341Z,948.73
2022-09-03T09:00:57.333Z,953.23
2022-09-03T09:01:57.410Z,958.16
2022-09-03T09:02:57.345Z,961.89
2022-09-03T09:03:57.297Z,963.71
2022-09-03T09:04:57.284Z,959.49
2022-09-03T09:05:57.262Z,958.07
2022-09-03T09:06:57.336Z,952.11
2022-09-03T09:07:57.248Z,945.63
2022-09-03T09:08:57.262Z,938.32
2022-09-03T09:09:57.219Z,943.31
2022-09-03T09:10:57.230Z,946.62
2022-09-03T09:11:57.217Z,943.50
2022-09-03T09:12:57.186Z,947.09
2022-09-03T09:13:57.184Z,947.34
2022-09-03T09:14:57.166Z,943.93
2022-09-03T09:15:57.172Z,940.19
2022-09-03T09:16:57.156Z,938.19
2022-09-03T09:17:57.129Z,939.08
2022-09-03T09:18:57.126Z,938.58
2022-09-03T09:19:57.099Z,938.69
2022-09-03T09:20:57.137Z,940.56
2022-09-03T09:21:57.357Z,939.85
2022-09-03T09:22:57.076Z,937.88
2022-09-03T09:23:57.078Z,941.08
2022-09-03T09:24:57.059Z,938.60
2022-09-03T09:25:57.040Z,936.20
2022-09-03T09:26:57.029Z,930.94
2022-09-03T09:27:57.019Z,925.78
2022-09-03T09:28:57.024Z,938.82
2022-09-03T09:29:56.990Z,896.21
2022-09-03T09:30:57.101Z,865.67
2022-09-03T09:31:56.981Z,838.00
2022-09-03T09:32:56.959Z,868.78
2022-09-03T09:33:56.961Z,843.86
2022-09-03T09:34:56.949Z,907.46
2022-09-03T09:35:56.975Z,736.67
2022-09-03T09:36:56.931Z,724.55
2022-09-03T09:37:56.915Z,719.79
2022-09-03T09:38:56.913Z,710.33
2022-09-03T09:39:56.950Z,705.06
2022-09-03T09:40:56.872Z,703.64
2022-09-03T09:41:56.890Z,706.50
2022-09-03T09:42:56.843Z,711.77
2022-09-03T09:43:56.844Z,719.37
2022-09-03T09:44:56.814Z,720.53
2022-09-03T09:45:56.862Z,720.08
2022-09-03T09:46:56.865Z,722.30
2022-09-03T09:47:56.793Z,728.00
2022-09-03T09:48:56.774Z,728.08
2022-09-03T09:49:56.786Z,727.66
2022-09-03T09:50:56.795Z,727.90
2022-09-03T09:51:56.745Z,732.77
2022-09-03T09:52:59.156Z,737.58
2022-09-03T09:53:56.736Z,747.59
2022-09-03T09:54:56.726Z,769.88
2022-09-03T09:55:56.720Z,847.22
2022-09-03T09:56:56.697Z,861.31
2022-09-03T09:57:56.687Z,876.46
2022-09-03T09:58:56.667Z,873.02
2022-09-03T09:59:56.669Z,863.66
2022-09-03T10:00:56.659Z,846.57
2022-09-03T10:01:56.683Z,825.16
2022-09-03T10:02:56.683Z,796.96
2022-09-03T10:03:56.608Z,751.93
2022-09-03T10:04:56.599Z,727.86
2022-09-03T10:05:56.619Z,712.47
2022-09-03T10:06:56.589Z,705.88
2022-09-03T10:07:56.568Z,700.71
2022-09-03T10:08:56.563Z,697.67
2022-09-03T10:09:56.561Z,695.69
2022-09-03T10:10:56.550Z,694.43
2022-09-03T10:11:57.258Z,693.88
2022-09-03T10:12:56.530Z,694.95
2022-09-03T10:13:56.499Z,697.96
2022-09-03T10:14:56.488Z,701.73
2022-09-03T10:15:56.527Z,704.01
2022-09-03T10:16:56.481Z,706.01
2022-09-03T10:17:56.441Z,708.11
2022-09-03T10:18:56.453Z,714.05
2022-09-03T10:19:56.432Z,723.21
2022-09-03T10:20:56.422Z,737.73
2022-09-03T10:21:56.423Z,759.39
2022-09-03T10:22:57.459Z,790.04
2022-09-03T10:23:56.471Z,821.45
2022-09-03T10:24:56.384Z,847.86
2022-09-03T10:25:56.383Z,866.89
2022-09-03T10:26:56.381Z,878.53
2022-09-03T10:27:56.334Z,886.88
2022-09-03T10:28:56.982Z,893.89
2022-09-03T10:29:56.336Z,899.07
2022-09-03T10:30:56.401Z,900.61
2022-09-03T10:31:56.328Z,899.52
2022-09-03T10:32:56.297Z,895.21
2022-09-03T10:33:56.281Z,892.46
2022-09-03T10:34:56.286Z,886.71
2022-09-03T10:35:56.255Z,875.74
2022-09-03T10:36:56.249Z,867.62
2022-09-03T10:37:56.544Z,867.61
2022-09-03T10:38:56.215Z,864.48
2022-09-03T10:39:56.256Z,853.33
2022-09-03T10:40:56.217Z,840.94
2022-09-03T10:41:56.252Z,836.58
2022-09-03T10:42:56.173Z,844.38
2022-09-03T10:43:56.178Z,856.50
2022-09-03T10:44:56.177Z,865.71
2022-09-03T10:45:56.234Z,881.57
2022-09-03T10:46:56.130Z,889.99
2022-09-03T10:47:56.158Z,891.89
2022-09-03T10:48:56.099Z,889.96
2022-09-03T10:49:56.090Z,884.42
2022-09-03T10:50:56.120Z,878.06
2022-09-03T10:51:56.096Z,880.75
2022-09-03T10:52:56.051Z,886.07
2022-09-03T10:53:56.049Z,893.27
2022-09-03T10:54:56.045Z,898.68
2022-09-03T10:55:56.024Z,904.10
2022-09-03T10:56:56.030Z,911.88
2022-09-03T10:57:56.005Z,914.16
2022-09-03T10:58:55.982Z,918.06
2022-09-03T10:59:55.977Z,923.07
2022-09-03T11:00:56.021Z,929.17
2022-09-03T11:01:56.026Z,933.05
2022-09-03T11:02:55.986Z,929.56
2022-09-03T11:03:55.969Z,927.26
2022-09-03T11:04:55.913Z,922.72
2022-09-03T11:05:55.924Z,918.93
2022-09-03T11:06:55.912Z,917.96
2022-09-03T11:07:55.883Z,920.74
2022-09-03T11:08:55.876Z,921.37
2022-09-03T11:09:55.870Z,917.06
2022-09-03T11:10:55.854Z,911.71
2022-09-03T11:11:55.835Z,907.80
2022-09-03T11:12:55.877Z,907.36
2022-09-03T11:13:55.816Z,907.21
2022-09-03T11:14:55.795Z,907.89
2022-09-03T11:15:55.879Z,910.76
2022-09-03T11:16:55.776Z,917.71
2022-09-03T11:17:55.771Z,929.83
2022-09-03T11:18:55.759Z,934.46
2022-09-03T11:19:55.804Z,973.71
2022-09-03T11:20:55.747Z,937.66
2022-09-03T11:21:55.732Z,929.78
2022-09-03T11:22:55.708Z,921.16
2022-09-03T11:23:55.708Z,919.19
2022-09-03T11:24:55.687Z,920.06
2022-09-03T11:25:55.693Z,927.08
2022-09-03T11:26:55.662Z,928.40
2022-09-03T11:27:56.699Z,949.76
2022-09-03T11:28:55.636Z,918.88
2022-09-03T11:29:55.640Z,899.95
2022-09-03T11:30:55.681Z,881.26
2022-09-03T11:31:55.600Z,873.61
2022-09-03T11:32:55.949Z,876.74
2022-09-03T11:33:55.590Z,892.88
2022-09-03T11:34:55.579Z,893.30
2022-09-03T11:35:55.572Z,898.88
2022-09-03T11:36:55.593Z,908.85
2022-09-03T11:37:55.533Z,825.30
2022-09-03T11:38:55.552Z,799.63
2022-09-03T11:39:56.527Z,797.90
2022-09-03T11:40:55.521Z,836.59
2022-09-03T11:41:55.494Z,829.35
2022-09-03T11:42:55.494Z,837.21
2022-09-03T11:43:55.476Z,848.02
2022-09-03T11:44:55.483Z,776.98
2022-09-03T11:45:55.517Z,742.09
2022-09-03T11:46:55.455Z,730.62
2022-09-03T11:47:55.439Z,860.49
2022-09-03T11:48:55.429Z,882.79
2022-09-03T11:49:55.395Z,641.34
2022-09-03T11:50:55.424Z,835.76
2022-09-03T11:51:55.418Z,718.03
2022-09-03T11:52:55.367Z,716.47
2022-09-03T11:53:55.349Z,664.52
2022-09-03T11:54:55.357Z,648.55
2022-09-03T11:55:55.355Z,623.26
2022-09-03T11:56:55.330Z,612.07
2022-09-03T11:57:55.318Z,629.08
2022-09-03T11:58:55.307Z,632.94
2022-09-03T11:59:55.299Z,629.48
2022-09-03T12:00:55.293Z,628.72
2022-09-03T12:01:55.279Z,628.14
2022-09-03T12:02:58.763Z,627.05
2022-09-03T12:03:55.267Z,625.99
2022-09-03T12:04:55.839Z,624.64
2022-09-03T12:05:55.218Z,623.64
2022-09-03T12:06:55.211Z,621.74
2022-09-03T12:07:55.222Z,621.58
2022-09-03T12:08:55.181Z,620.05
2022-09-03T12:09:55.261Z,622.65
2022-09-03T12:10:55.162Z,621.67
2022-09-03T12:11:55.171Z,616.71
2022-09-03T12:12:55.186Z,617.61
2022-09-03T12:13:55.132Z,612.43
2022-09-03T12:14:55.143Z,615.92
2022-09-03T12:15:55.184Z,613.32
2022-09-03T12:16:55.146Z,610.14
2022-09-03T12:17:55.132Z,609.06
2022-09-03T12:18:55.073Z,610.27
2022-09-03T12:19:55.064Z,610.87
2022-09-03T12:20:55.065Z,612.08
2022-09-03T12:21:55.052Z,612.00
2022-09-03T12:22:55.027Z,610.61
2022-09-03T12:23:58.167Z,608.82
2022-09-03T12:24:55.009Z,606.84
2022-09-03T12:25:55.068Z,605.42
2022-09-03T12:26:54.978Z,605.08
2022-09-03T12:27:54.987Z,604.42